sensor_id;sensor_type;location;lat;lon;timestamp;P1;durP1;ratioP1;P2;durP2;ratioP2
84329;SDS011;74510;42.676;23.432;2024-03-22T00:01:44;18.83;;;7.75;;
84329;SDS011;74510;42.676;23.432;2024-03-22T00:04:10;14.10;;;8.70;;
84329;SDS011;74510;42.676;23.432;2024-03-22T00:06:35;18.33;;;8.07;;
84329;SDS011;74510;42.676;23.432;2024-03-22T00:09:01;16.05;;;7.70;;
84329;SDS011;74510;42.676;23.432;2024-03-22T00:11:26;14.02;;;7.45;;
84329;SDS011;74510;42.676;23.432;2024-03-22T00:13:53;15.30;;;7.85;;
84329;SDS011;74510;42.676;23.432;2024-03-22T00:16:18;17.38;;;7.00;;
84329;SDS011;74510;42.676;23.432;2024-03-22T00:18:44;14.93;;;6.95;;
84329;SDS011;74510;42.676;23.432;2024-03-22T00:21:09;15.07;;;7.47;;
84329;SDS011;74510;42.676;23.432;2024-03-22T00:23:34;14.30;;;7.40;;
84329;SDS011;74510;42.676;23.432;2024-03-22T00:26:00;14.48;;;6.53;;
84329;SDS011;74510;42.676;23.432;2024-03-22T00:28:26;11.43;;;7.03;;
84329;SDS011;74510;42.676;23.432;2024-03-22T00:30:51;16.35;;;7.82;;
84329;SDS011;74510;42.676;23.432;2024-03-22T00:33:17;16.17;;;10.10;;
84329;SDS011;74510;42.676;23.432;2024-03-22T00:35:42;16.13;;;9.65;;
84329;SDS011;74510;42.676;23.432;2024-03-22T00:38:07;13.38;;;7.38;;
84329;SDS011;74510;42.676;23.432;2024-03-22T00:40:33;17.77;;;9.48;;
84329;SDS011;74510;42.676;23.432;2024-03-22T00:42:58;23.10;;;9.88;;
84329;SDS011;74510;42.676;23.432;2024-03-22T00:45:23;22.55;;;10.88;;
84329;SDS011;74510;42.676;23.432;2024-03-22T00:47:49;15.13;;;8.23;;
84329;SDS011;74510;42.676;23.432;2024-03-22T00:50:14;17.35;;;9.73;;
84329;SDS011;74510;42.676;23.432;2024-03-22T00:52:40;14.60;;;8.18;;
84329;SDS011;74510;42.676;23.432;2024-03-22T00:55:06;14.98;;;8.93;;
84329;SDS011;74510;42.676;23.432;2024-03-22T00:57:32;24.67;;;10.77;;
84329;SDS011;74510;42.676;23.432;2024-03-22T00:59:57;18.83;;;9.73;;
84329;SDS011;74510;42.676;23.432;2024-03-22T01:02:23;17.17;;;8.50;;
84329;SDS011;74510;42.676;23.432;2024-03-22T01:04:48;16.58;;;7.47;;
84329;SDS011;74510;42.676;23.432;2024-03-22T01:07:14;17.70;;;8.70;;
84329;SDS011;74510;42.676;23.432;2024-03-22T01:09:39;15.25;;;8.43;;
84329;SDS011;74510;42.676;23.432;2024-03-22T01:12:05;17.48;;;8.30;;
84329;SDS011;74510;42.676;23.432;2024-03-22T01:14:30;15.07;;;8.70;;
84329;SDS011;74510;42.676;23.432;2024-03-22T01:16:56;19.38;;;10.15;;
84329;SDS011;74510;42.676;23.432;2024-03-22T01:19:21;13.98;;;8.13;;
84329;SDS011;74510;42.676;23.432;2024-03-22T01:21:48;19.40;;;8.32;;
84329;SDS011;74510;42.676;23.432;2024-03-22T01:24:13;22.42;;;12.25;;
84329;SDS011;74510;42.676;23.432;2024-03-22T01:26:39;50.03;;;18.08;;
84329;SDS011;74510;42.676;23.432;2024-03-22T01:29:04;33.08;;;14.38;;
84329;SDS011;74510;42.676;23.432;2024-03-22T01:31:30;40.78;;;16.80;;
84329;SDS011;74510;42.676;23.432;2024-03-22T01:33:55;37.10;;;14.70;;
84329;SDS011;74510;42.676;23.432;2024-03-22T01:36:21;31.35;;;14.68;;
84329;SDS011;74510;42.676;23.432;2024-03-22T01:38:46;33.38;;;12.75;;
84329;SDS011;74510;42.676;23.432;2024-03-22T01:41:11;30.23;;;12.35;;
84329;SDS011;74510;42.676;23.432;2024-03-22T01:43:37;31.88;;;12.00;;
84329;SDS011;74510;42.676;23.432;2024-03-22T01:46:02;28.25;;;12.20;;
84329;SDS011;74510;42.676;23.432;2024-03-22T01:48:29;29.83;;;11.60;;
84329;SDS011;74510;42.676;23.432;2024-03-22T01:50:55;26.05;;;10.60;;
84329;SDS011;74510;42.676;23.432;2024-03-22T01:53:20;18.88;;;9.55;;
84329;SDS011;74510;42.676;23.432;2024-03-22T01:55:46;23.38;;;10.23;;
84329;SDS011;74510;42.676;23.432;2024-03-22T01:58:12;26.23;;;12.15;;
84329;SDS011;74510;42.676;23.432;2024-03-22T02:00:38;28.83;;;12.48;;
84329;SDS011;74510;42.676;23.432;2024-03-22T02:03:03;26.60;;;12.23;;
84329;SDS011;74510;42.676;23.432;2024-03-22T02:05:29;32.70;;;13.60;;
84329;SDS011;74510;42.676;23.432;2024-03-22T02:07:54;36.47;;;14.43;;
84329;SDS011;74510;42.676;23.432;2024-03-22T02:10:20;34.40;;;14.57;;
84329;SDS011;74510;42.676;23.432;2024-03-22T02:12:46;29.15;;;15.55;;
84329;SDS011;74510;42.676;23.432;2024-03-22T02:15:11;25.63;;;12.90;;
84329;SDS011;74510;42.676;23.432;2024-03-22T02:17:37;27.65;;;12.52;;
84329;SDS011;74510;42.676;23.432;2024-03-22T02:20:02;27.02;;;12.70;;
84329;SDS011;74510;42.676;23.432;2024-03-22T02:22:29;24.60;;;10.35;;
84329;SDS011;74510;42.676;23.432;2024-03-22T02:24:55;30.75;;;12.38;;
84329;SDS011;74510;42.676;23.432;2024-03-22T02:27:20;20.08;;;11.15;;
84329;SDS011;74510;42.676;23.432;2024-03-22T02:29:46;20.25;;;9.88;;
84329;SDS011;74510;42.676;23.432;2024-03-22T02:32:11;18.90;;;8.35;;
84329;SDS011;74510;42.676;23.432;2024-03-22T02:34:37;18.90;;;8.20;;
84329;SDS011;74510;42.676;23.432;2024-03-22T02:37:03;17.23;;;8.18;;
84329;SDS011;74510;42.676;23.432;2024-03-22T02:39:28;16.83;;;7.90;;
84329;SDS011;74510;42.676;23.432;2024-03-22T02:41:54;18.33;;;8.38;;
84329;SDS011;74510;42.676;23.432;2024-03-22T02:44:20;19.40;;;8.55;;
84329;SDS011;74510;42.676;23.432;2024-03-22T02:46:45;12.38;;;7.13;;
84329;SDS011;74510;42.676;23.432;2024-03-22T02:49:10;13.60;;;7.20;;
84329;SDS011;74510;42.676;23.432;2024-03-22T02:51:36;14.23;;;7.88;;
84329;SDS011;74510;42.676;23.432;2024-03-22T02:54:01;14.02;;;7.43;;
84329;SDS011;74510;42.676;23.432;2024-03-22T02:56:27;19.52;;;8.70;;
84329;SDS011;74510;42.676;23.432;2024-03-22T02:58:52;13.07;;;7.70;;
84329;SDS011;74510;42.676;23.432;2024-03-22T03:01:18;19.63;;;9.73;;
84329;SDS011;74510;42.676;23.432;2024-03-22T03:03:43;11.93;;;7.53;;
84329;SDS011;74510;42.676;23.432;2024-03-22T03:06:09;12.18;;;7.28;;
84329;SDS011;74510;42.676;23.432;2024-03-22T03:08:35;11.57;;;6.18;;
84329;SDS011;74510;42.676;23.432;2024-03-22T03:11:00;13.20;;;6.32;;
84329;SDS011;74510;42.676;23.432;2024-03-22T03:13:25;9.70;;;5.80;;
84329;SDS011;74510;42.676;23.432;2024-03-22T03:15:51;12.13;;;5.78;;
84329;SDS011;74510;42.676;23.432;2024-03-22T03:18:16;12.50;;;5.72;;
84329;SDS011;74510;42.676;23.432;2024-03-22T03:20:42;11.27;;;5.50;;
84329;SDS011;74510;42.676;23.432;2024-03-22T03:23:08;10.80;;;5.03;;
84329;SDS011;74510;42.676;23.432;2024-03-22T03:25:33;10.23;;;5.88;;
84329;SDS011;74510;42.676;23.432;2024-03-22T03:27:59;12.25;;;6.28;;
84329;SDS011;74510;42.676;23.432;2024-03-22T03:30:24;15.82;;;7.70;;
84329;SDS011;74510;42.676;23.432;2024-03-22T03:32:50;15.88;;;7.95;;
84329;SDS011;74510;42.676;23.432;2024-03-22T03:35:15;17.45;;;7.78;;
84329;SDS011;74510;42.676;23.432;2024-03-22T03:37:40;18.88;;;10.88;;
84329;SDS011;74510;42.676;23.432;2024-03-22T03:40:06;19.83;;;9.60;;
84329;SDS011;74510;42.676;23.432;2024-03-22T03:42:32;19.27;;;11.32;;
84329;SDS011;74510;42.676;23.432;2024-03-22T03:44:57;23.13;;;13.38;;
84329;SDS011;74510;42.676;23.432;2024-03-22T03:47:23;24.15;;;8.43;;
84329;SDS011;74510;42.676;23.432;2024-03-22T03:49:48;16.33;;;7.78;;
84329;SDS011;74510;42.676;23.432;2024-03-22T03:52:14;14.32;;;8.10;;
84329;SDS011;74510;42.676;23.432;2024-03-22T03:54:39;17.08;;;8.95;;
84329;SDS011;74510;42.676;23.432;2024-03-22T03:57:05;14.30;;;8.65;;
84329;SDS011;74510;42.676;23.432;2024-03-22T03:59:30;14.45;;;7.18;;
84329;SDS011;74510;42.676;23.432;2024-03-22T04:01:56;13.20;;;7.50;;
84329;SDS011;74510;42.676;23.432;2024-03-22T04:04:21;14.27;;;6.97;;
84329;SDS011;74510;42.676;23.432;2024-03-22T04:06:47;13.43;;;7.68;;
84329;SDS011;74510;42.676;23.432;2024-03-22T04:09:12;18.23;;;10.05;;
84329;SDS011;74510;42.676;23.432;2024-03-22T04:11:37;21.35;;;8.57;;
84329;SDS011;74510;42.676;23.432;2024-03-22T04:14:04;14.73;;;8.55;;
84329;SDS011;74510;42.676;23.432;2024-03-22T04:16:30;13.20;;;7.43;;
84329;SDS011;74510;42.676;23.432;2024-03-22T04:18:56;24.50;;;10.32;;
84329;SDS011;74510;42.676;23.432;2024-03-22T04:21:22;17.77;;;9.57;;
84329;SDS011;74510;42.676;23.432;2024-03-22T04:23:47;18.08;;;10.15;;
84329;SDS011;74510;42.676;23.432;2024-03-22T04:26:12;22.15;;;11.35;;
84329;SDS011;74510;42.676;23.432;2024-03-22T04:28:38;28.33;;;11.85;;
84329;SDS011;74510;42.676;23.432;2024-03-22T04:31:04;19.17;;;11.25;;
84329;SDS011;74510;42.676;23.432;2024-03-22T04:33:32;18.65;;;9.80;;
84329;SDS011;74510;42.676;23.432;2024-03-22T04:35:58;29.70;;;14.10;;
84329;SDS011;74510;42.676;23.432;2024-03-22T04:38:24;33.50;;;15.90;;
84329;SDS011;74510;42.676;23.432;2024-03-22T04:40:50;24.42;;;12.48;;
84329;SDS011;74510;42.676;23.432;2024-03-22T04:43:16;18.58;;;10.07;;
84329;SDS011;74510;42.676;23.432;2024-03-22T04:45:45;16.80;;;8.77;;
84329;SDS011;74510;42.676;23.432;2024-03-22T04:48:16;18.35;;;8.45;;
84329;SDS011;74510;42.676;23.432;2024-03-22T04:50:42;13.98;;;6.78;;
84329;SDS011;74510;42.676;23.432;2024-03-22T04:53:08;22.23;;;8.75;;
84329;SDS011;74510;42.676;23.432;2024-03-22T04:55:33;19.23;;;8.07;;
84329;SDS011;74510;42.676;23.432;2024-03-22T04:57:59;19.73;;;8.43;;
84329;SDS011;74510;42.676;23.432;2024-03-22T05:00:24;27.92;;;9.48;;
84329;SDS011;74510;42.676;23.432;2024-03-22T05:02:50;24.33;;;10.45;;
84329;SDS011;74510;42.676;23.432;2024-03-22T05:05:16;34.08;;;11.73;;
84329;SDS011;74510;42.676;23.432;2024-03-22T05:07:42;27.88;;;10.93;;
84329;SDS011;74510;42.676;23.432;2024-03-22T05:10:07;27.00;;;10.05;;
84329;SDS011;74510;42.676;23.432;2024-03-22T05:12:34;22.70;;;9.52;;
84329;SDS011;74510;42.676;23.432;2024-03-22T05:14:59;25.15;;;10.43;;
84329;SDS011;74510;42.676;23.432;2024-03-22T05:17:25;24.67;;;10.07;;
84329;SDS011;74510;42.676;23.432;2024-03-22T05:19:50;20.58;;;9.95;;
84329;SDS011;74510;42.676;23.432;2024-03-22T05:22:16;20.95;;;8.90;;
84329;SDS011;74510;42.676;23.432;2024-03-22T05:24:41;20.55;;;8.32;;
84329;SDS011;74510;42.676;23.432;2024-03-22T05:27:07;17.85;;;7.10;;
84329;SDS011;74510;42.676;23.432;2024-03-22T05:29:32;18.13;;;7.50;;
84329;SDS011;74510;42.676;23.432;2024-03-22T05:31:58;37.70;;;14.27;;
84329;SDS011;74510;42.676;23.432;2024-03-22T05:34:23;54.30;;;19.90;;
84329;SDS011;74510;42.676;23.432;2024-03-22T05:36:48;26.27;;;9.70;;
84329;SDS011;74510;42.676;23.432;2024-03-22T05:39:14;26.35;;;10.20;;
84329;SDS011;74510;42.676;23.432;2024-03-22T05:41:40;41.60;;;16.23;;
84329;SDS011;74510;42.676;23.432;2024-03-22T05:44:05;22.77;;;9.95;;
84329;SDS011;74510;42.676;23.432;2024-03-22T05:46:31;36.53;;;16.65;;
84329;SDS011;74510;42.676;23.432;2024-03-22T05:48:57;25.40;;;12.90;;
84329;SDS011;74510;42.676;23.432;2024-03-22T05:51:23;29.25;;;12.60;;
84329;SDS011;74510;42.676;23.432;2024-03-22T05:53:49;20.80;;;11.98;;
84329;SDS011;74510;42.676;23.432;2024-03-22T05:56:15;20.40;;;10.25;;
84329;SDS011;74510;42.676;23.432;2024-03-22T05:58:40;22.05;;;10.30;;
84329;SDS011;74510;42.676;23.432;2024-03-22T06:01:05;25.83;;;9.50;;
84329;SDS011;74510;42.676;23.432;2024-03-22T06:03:31;17.70;;;8.65;;
84329;SDS011;74510;42.676;23.432;2024-03-22T06:05:59;20.85;;;8.60;;
84329;SDS011;74510;42.676;23.432;2024-03-22T06:08:28;22.17;;;9.77;;
84329;SDS011;74510;42.676;23.432;2024-03-22T06:10:54;19.52;;;10.32;;
84329;SDS011;74510;42.676;23.432;2024-03-22T06:13:20;33.65;;;10.85;;
84329;SDS011;74510;42.676;23.432;2024-03-22T06:15:48;19.20;;;8.98;;
84329;SDS011;74510;42.676;23.432;2024-03-22T06:18:14;22.42;;;8.77;;
84329;SDS011;74510;42.676;23.432;2024-03-22T06:20:40;17.55;;;8.60;;
84329;SDS011;74510;42.676;23.432;2024-03-22T06:23:06;15.32;;;8.48;;
84329;SDS011;74510;42.676;23.432;2024-03-22T06:25:35;15.93;;;7.90;;
84329;SDS011;74510;42.676;23.432;2024-03-22T06:28:01;15.90;;;7.82;;
84329;SDS011;74510;42.676;23.432;2024-03-22T06:30:27;18.23;;;9.20;;
84329;SDS011;74510;42.676;23.432;2024-03-22T06:32:53;15.18;;;7.88;;
84329;SDS011;74510;42.676;23.432;2024-03-22T06:35:19;12.90;;;7.10;;
84329;SDS011;74510;42.676;23.432;2024-03-22T06:37:45;15.38;;;7.47;;
84329;SDS011;74510;42.676;23.432;2024-03-22T06:40:11;14.02;;;8.93;;
84329;SDS011;74510;42.676;23.432;2024-03-22T06:42:36;16.10;;;9.25;;
84329;SDS011;74510;42.676;23.432;2024-03-22T06:45:02;18.27;;;9.38;;
84329;SDS011;74510;42.676;23.432;2024-03-22T06:47:28;17.13;;;9.85;;
84329;SDS011;74510;42.676;23.432;2024-03-22T06:49:53;17.08;;;8.52;;
84329;SDS011;74510;42.676;23.432;2024-03-22T06:52:19;15.68;;;7.82;;
84329;SDS011;74510;42.676;23.432;2024-03-22T06:54:45;16.35;;;8.13;;
84329;SDS011;74510;42.676;23.432;2024-03-22T06:57:10;13.70;;;8.60;;
84329;SDS011;74510;42.676;23.432;2024-03-22T06:59:36;13.48;;;7.13;;
84329;SDS011;74510;42.676;23.432;2024-03-22T07:02:01;10.82;;;7.30;;
84329;SDS011;74510;42.676;23.432;2024-03-22T07:04:27;15.25;;;7.50;;
84329;SDS011;74510;42.676;23.432;2024-03-22T07:06:52;12.95;;;7.43;;
84329;SDS011;74510;42.676;23.432;2024-03-22T07:09:18;13.02;;;6.10;;
84329;SDS011;74510;42.676;23.432;2024-03-22T07:11:43;11.68;;;6.40;;
84329;SDS011;74510;42.676;23.432;2024-03-22T07:14:09;10.07;;;6.88;;
84329;SDS011;74510;42.676;23.432;2024-03-22T07:16:34;13.15;;;6.07;;
84329;SDS011;74510;42.676;23.432;2024-03-22T07:19:02;10.68;;;6.57;;
84329;SDS011;74510;42.676;23.432;2024-03-22T07:21:28;10.85;;;6.88;;
84329;SDS011;74510;42.676;23.432;2024-03-22T07:23:54;14.85;;;6.90;;
84329;SDS011;74510;42.676;23.432;2024-03-22T07:26:19;14.43;;;7.45;;
84329;SDS011;74510;42.676;23.432;2024-03-22T07:28:45;14.60;;;6.50;;
84329;SDS011;74510;42.676;23.432;2024-03-22T07:31:10;15.60;;;6.85;;
84329;SDS011;74510;42.676;23.432;2024-03-22T07:33:35;11.43;;;6.90;;
84329;SDS011;74510;42.676;23.432;2024-03-22T07:36:01;13.63;;;6.30;;
84329;SDS011;74510;42.676;23.432;2024-03-22T07:38:27;11.63;;;6.68;;
84329;SDS011;74510;42.676;23.432;2024-03-22T07:40:53;12.93;;;7.07;;
84329;SDS011;74510;42.676;23.432;2024-03-22T07:43:18;10.45;;;6.43;;
84329;SDS011;74510;42.676;23.432;2024-03-22T07:45:44;13.07;;;6.25;;
84329;SDS011;74510;42.676;23.432;2024-03-22T07:48:09;10.27;;;7.03;;
84329;SDS011;74510;42.676;23.432;2024-03-22T07:50:35;7.97;;;5.03;;
84329;SDS011;74510;42.676;23.432;2024-03-22T07:53:01;7.13;;;3.67;;
84329;SDS011;74510;42.676;23.432;2024-03-22T07:55:26;11.60;;;4.13;;
84329;SDS011;74510;42.676;23.432;2024-03-22T07:57:51;6.40;;;5.22;;
84329;SDS011;74510;42.676;23.432;2024-03-22T08:00:17;5.72;;;2.80;;
84329;SDS011;74510;42.676;23.432;2024-03-22T08:02:43;5.95;;;3.08;;
84329;SDS011;74510;42.676;23.432;2024-03-22T08:05:08;7.20;;;3.70;;
84329;SDS011;74510;42.676;23.432;2024-03-22T08:07:34;5.10;;;2.88;;
84329;SDS011;74510;42.676;23.432;2024-03-22T08:09:59;5.60;;;2.78;;
84329;SDS011;74510;42.676;23.432;2024-03-22T08:12:27;6.38;;;2.60;;
84329;SDS011;74510;42.676;23.432;2024-03-22T08:14:52;6.65;;;2.92;;
84329;SDS011;74510;42.676;23.432;2024-03-22T08:17:18;7.47;;;2.80;;
84329;SDS011;74510;42.676;23.432;2024-03-22T08:19:43;9.20;;;3.05;;
84329;SDS011;74510;42.676;23.432;2024-03-22T08:22:09;11.45;;;4.80;;
84329;SDS011;74510;42.676;23.432;2024-03-22T08:24:35;7.78;;;4.15;;
84329;SDS011;74510;42.676;23.432;2024-03-22T08:27:00;4.75;;;2.88;;
84329;SDS011;74510;42.676;23.432;2024-03-22T08:29:26;6.78;;;3.95;;
84329;SDS011;74510;42.676;23.432;2024-03-22T08:31:51;4.38;;;2.80;;
84329;SDS011;74510;42.676;23.432;2024-03-22T08:34:17;7.75;;;3.08;;
84329;SDS011;74510;42.676;23.432;2024-03-22T08:36:42;6.38;;;2.72;;
84329;SDS011;74510;42.676;23.432;2024-03-22T08:39:07;6.63;;;2.83;;
84329;SDS011;74510;42.676;23.432;2024-03-22T08:41:35;6.50;;;4.00;;
84329;SDS011;74510;42.676;23.432;2024-03-22T08:44:02;7.18;;;4.13;;
84329;SDS011;74510;42.676;23.432;2024-03-22T08:46:27;5.95;;;3.50;;
84329;SDS011;74510;42.676;23.432;2024-03-22T08:48:53;6.03;;;2.97;;
84329;SDS011;74510;42.676;23.432;2024-03-22T08:51:19;5.53;;;2.72;;
84329;SDS011;74510;42.676;23.432;2024-03-22T08:53:44;4.25;;;3.05;;
84329;SDS011;74510;42.676;23.432;2024-03-22T08:56:10;6.88;;;3.17;;
84329;SDS011;74510;42.676;23.432;2024-03-22T08:58:36;6.65;;;3.13;;
84329;SDS011;74510;42.676;23.432;2024-03-22T09:01:01;7.32;;;4.18;;
84329;SDS011;74510;42.676;23.432;2024-03-22T09:03:27;6.13;;;3.42;;
84329;SDS011;74510;42.676;23.432;2024-03-22T09:05:52;4.63;;;3.15;;
84329;SDS011;74510;42.676;23.432;2024-03-22T09:08:18;5.72;;;2.85;;
84329;SDS011;74510;42.676;23.432;2024-03-22T09:10:45;7.60;;;3.30;;
84329;SDS011;74510;42.676;23.432;2024-03-22T09:13:10;5.43;;;3.33;;
84329;SDS011;74510;42.676;23.432;2024-03-22T09:15:37;4.28;;;2.53;;
84329;SDS011;74510;42.676;23.432;2024-03-22T09:18:03;5.85;;;3.38;;
84329;SDS011;74510;42.676;23.432;2024-03-22T09:20:29;21.85;;;5.10;;
84329;SDS011;74510;42.676;23.432;2024-03-22T09:22:54;7.70;;;3.22;;
84329;SDS011;74510;42.676;23.432;2024-03-22T09:25:20;7.25;;;3.38;;
84329;SDS011;74510;42.676;23.432;2024-03-22T09:27:46;11.30;;;3.38;;
84329;SDS011;74510;42.676;23.432;2024-03-22T09:30:11;6.80;;;3.25;;
84329;SDS011;74510;42.676;23.432;2024-03-22T09:32:37;5.60;;;3.33;;
84329;SDS011;74510;42.676;23.432;2024-03-22T09:35:03;5.78;;;2.72;;
84329;SDS011;74510;42.676;23.432;2024-03-22T09:37:29;6.07;;;3.30;;
84329;SDS011;74510;42.676;23.432;2024-03-22T09:39:54;5.78;;;2.88;;
84329;SDS011;74510;42.676;23.432;2024-03-22T09:42:19;4.65;;;3.30;;
84329;SDS011;74510;42.676;23.432;2024-03-22T09:44:48;4.43;;;2.60;;
84329;SDS011;74510;42.676;23.432;2024-03-22T09:47:17;4.72;;;2.70;;
84329;SDS011;74510;42.676;23.432;2024-03-22T09:49:43;5.68;;;2.88;;
84329;SDS011;74510;42.676;23.432;2024-03-22T09:52:14;5.75;;;3.15;;
84329;SDS011;74510;42.676;23.432;2024-03-22T09:54:44;5.80;;;3.38;;
84329;SDS011;74510;42.676;23.432;2024-03-22T09:57:12;4.97;;;2.97;;
84329;SDS011;74510;42.676;23.432;2024-03-22T09:59:40;4.68;;;2.90;;
84329;SDS011;74510;42.676;23.432;2024-03-22T10:02:07;4.03;;;2.60;;
84329;SDS011;74510;42.676;23.432;2024-03-22T10:04:35;9.20;;;3.17;;
84329;SDS011;74510;42.676;23.432;2024-03-22T10:07:02;7.32;;;2.70;;
84329;SDS011;74510;42.676;23.432;2024-03-22T10:09:31;4.80;;;2.40;;
84329;SDS011;74510;42.676;23.432;2024-03-22T10:11:57;4.15;;;2.13;;
84329;SDS011;74510;42.676;23.432;2024-03-22T10:14:23;6.03;;;2.53;;
84329;SDS011;74510;42.676;23.432;2024-03-22T10:16:52;4.43;;;2.50;;
84329;SDS011;74510;42.676;23.432;2024-03-22T10:19:21;5.03;;;2.90;;
84329;SDS011;74510;42.676;23.432;2024-03-22T10:21:48;6.68;;;2.67;;
84329;SDS011;74510;42.676;23.432;2024-03-22T10:24:25;6.85;;;2.70;;
84329;SDS011;74510;42.676;23.432;2024-03-22T10:26:50;5.00;;;2.88;;
84329;SDS011;74510;42.676;23.432;2024-03-22T10:29:15;4.57;;;3.15;;
84329;SDS011;74510;42.676;23.432;2024-03-22T10:31:41;3.92;;;2.88;;
84329;SDS011;74510;42.676;23.432;2024-03-22T10:34:07;5.22;;;2.92;;
84329;SDS011;74510;42.676;23.432;2024-03-22T10:36:34;4.85;;;3.72;;
84329;SDS011;74510;42.676;23.432;2024-03-22T10:38:59;5.82;;;2.67;;
84329;SDS011;74510;42.676;23.432;2024-03-22T10:41:26;5.35;;;2.80;;
84329;SDS011;74510;42.676;23.432;2024-03-22T10:43:52;6.18;;;3.83;;
84329;SDS011;74510;42.676;23.432;2024-03-22T10:46:19;5.82;;;3.22;;
84329;SDS011;74510;42.676;23.432;2024-03-22T10:48:46;4.93;;;2.80;;
84329;SDS011;74510;42.676;23.432;2024-03-22T10:51:12;3.80;;;2.33;;
84329;SDS011;74510;42.676;23.432;2024-03-22T10:53:39;3.88;;;2.55;;
84329;SDS011;74510;42.676;23.432;2024-03-22T10:56:06;5.25;;;2.75;;
84329;SDS011;74510;42.676;23.432;2024-03-22T10:58:33;4.57;;;2.70;;
84329;SDS011;74510;42.676;23.432;2024-03-22T11:00:58;6.55;;;3.10;;
84329;SDS011;74510;42.676;23.432;2024-03-22T11:03:25;6.28;;;2.75;;
84329;SDS011;74510;42.676;23.432;2024-03-22T11:05:55;5.55;;;4.10;;
84329;SDS011;74510;42.676;23.432;2024-03-22T11:08:27;4.18;;;2.75;;
84329;SDS011;74510;42.676;23.432;2024-03-22T11:10:56;4.82;;;2.58;;
84329;SDS011;74510;42.676;23.432;2024-03-22T11:13:22;6.22;;;2.97;;
84329;SDS011;74510;42.676;23.432;2024-03-22T11:15:50;4.85;;;2.78;;
84329;SDS011;74510;42.676;23.432;2024-03-22T11:18:16;5.35;;;3.10;;
84329;SDS011;74510;42.676;23.432;2024-03-22T11:20:42;4.68;;;2.92;;
84329;SDS011;74510;42.676;23.432;2024-03-22T11:23:08;4.55;;;3.10;;
84329;SDS011;74510;42.676;23.432;2024-03-22T11:25:34;7.13;;;2.63;;
84329;SDS011;74510;42.676;23.432;2024-03-22T11:28:00;7.95;;;2.97;;
84329;SDS011;74510;42.676;23.432;2024-03-22T11:30:29;5.03;;;2.58;;
84329;SDS011;74510;42.676;23.432;2024-03-22T11:32:57;5.63;;;2.78;;
84329;SDS011;74510;42.676;23.432;2024-03-22T11:35:30;3.78;;;3.17;;
84329;SDS011;74510;42.676;23.432;2024-03-22T11:37:56;3.38;;;2.50;;
84329;SDS011;74510;42.676;23.432;2024-03-22T11:40:23;3.63;;;2.20;;
84329;SDS011;74510;42.676;23.432;2024-03-22T11:42:51;3.47;;;2.38;;
84329;SDS011;74510;42.676;23.432;2024-03-22T11:45:18;3.50;;;2.03;;
84329;SDS011;74510;42.676;23.432;2024-03-22T11:47:45;5.05;;;2.38;;
84329;SDS011;74510;42.676;23.432;2024-03-22T11:50:12;7.10;;;2.47;;
84329;SDS011;74510;42.676;23.432;2024-03-22T11:52:41;5.70;;;2.45;;
84329;SDS011;74510;42.676;23.432;2024-03-22T11:55:07;5.03;;;2.17;;
84329;SDS011;74510;42.676;23.432;2024-03-22T11:57:33;4.20;;;2.08;;
84329;SDS011;74510;42.676;23.432;2024-03-22T11:59:59;4.68;;;2.58;;
84329;SDS011;74510;42.676;23.432;2024-03-22T12:04:51;2.90;;;2.13;;
84329;SDS011;74510;42.676;23.432;2024-03-22T12:07:17;5.22;;;1.85;;
84329;SDS011;74510;42.676;23.432;2024-03-22T12:09:46;4.05;;;2.00;;
84329;SDS011;74510;42.676;23.432;2024-03-22T12:12:12;2.83;;;2.10;;
84329;SDS011;74510;42.676;23.432;2024-03-22T12:14:38;3.13;;;2.00;;
84329;SDS011;74510;42.676;23.432;2024-03-22T12:17:05;3.53;;;2.03;;
84329;SDS011;74510;42.676;23.432;2024-03-22T12:19:30;3.22;;;2.05;;
84329;SDS011;74510;42.676;23.432;2024-03-22T12:21:56;4.97;;;2.55;;
84329;SDS011;74510;42.676;23.432;2024-03-22T12:24:22;4.43;;;2.00;;
84329;SDS011;74510;42.676;23.432;2024-03-22T12:26:48;3.53;;;2.38;;
84329;SDS011;74510;42.676;23.432;2024-03-22T12:29:15;4.20;;;2.30;;
84329;SDS011;74510;42.676;23.432;2024-03-22T12:31:41;2.47;;;2.00;;
84329;SDS011;74510;42.676;23.432;2024-03-22T12:34:07;5.18;;;2.15;;
84329;SDS011;74510;42.676;23.432;2024-03-22T12:36:33;2.97;;;2.00;;
84329;SDS011;74510;42.676;23.432;2024-03-22T12:38:58;4.35;;;2.20;;
84329;SDS011;74510;42.676;23.432;2024-03-22T12:41:24;3.50;;;2.10;;
84329;SDS011;74510;42.676;23.432;2024-03-22T12:43:50;3.50;;;2.20;;
84329;SDS011;74510;42.676;23.432;2024-03-22T12:46:15;3.47;;;2.05;;
84329;SDS011;74510;42.676;23.432;2024-03-22T12:48:41;4.47;;;2.20;;
84329;SDS011;74510;42.676;23.432;2024-03-22T12:51:06;3.78;;;2.30;;
84329;SDS011;74510;42.676;23.432;2024-03-22T12:53:32;4.72;;;2.30;;
84329;SDS011;74510;42.676;23.432;2024-03-22T12:55:57;4.15;;;2.33;;
84329;SDS011;74510;42.676;23.432;2024-03-22T12:58:23;7.00;;;2.45;;
84329;SDS011;74510;42.676;23.432;2024-03-22T13:00:48;3.67;;;2.13;;
84329;SDS011;74510;42.676;23.432;2024-03-22T13:03:14;4.50;;;3.95;;
84329;SDS011;74510;42.676;23.432;2024-03-22T13:05:41;3.55;;;2.08;;
84329;SDS011;74510;42.676;23.432;2024-03-22T13:08:06;3.00;;;2.05;;
84329;SDS011;74510;42.676;23.432;2024-03-22T13:10:32;5.22;;;2.55;;
84329;SDS011;74510;42.676;23.432;2024-03-22T13:12:58;7.18;;;2.75;;
84329;SDS011;74510;42.676;23.432;2024-03-22T13:15:23;5.05;;;3.00;;
84329;SDS011;74510;42.676;23.432;2024-03-22T13:17:49;4.63;;;2.47;;
84329;SDS011;74510;42.676;23.432;2024-03-22T13:20:15;5.40;;;2.33;;
84329;SDS011;74510;42.676;23.432;2024-03-22T13:22:43;3.85;;;2.35;;
84329;SDS011;74510;42.676;23.432;2024-03-22T13:25:09;8.20;;;3.08;;
84329;SDS011;74510;42.676;23.432;2024-03-22T13:27:36;3.28;;;2.22;;
84329;SDS011;74510;42.676;23.432;2024-03-22T13:30:04;4.40;;;2.22;;
84329;SDS011;74510;42.676;23.432;2024-03-22T13:32:31;6.47;;;2.63;;
84329;SDS011;74510;42.676;23.432;2024-03-22T13:34:56;7.32;;;2.70;;
84329;SDS011;74510;42.676;23.432;2024-03-22T13:37:22;7.30;;;2.42;;
84329;SDS011;74510;42.676;23.432;2024-03-22T13:39:48;5.35;;;2.20;;
84329;SDS011;74510;42.676;23.432;2024-03-22T13:42:14;3.20;;;2.35;;
84329;SDS011;74510;42.676;23.432;2024-03-22T13:44:40;4.63;;;2.22;;
84329;SDS011;74510;42.676;23.432;2024-03-22T13:47:06;3.60;;;2.33;;
84329;SDS011;74510;42.676;23.432;2024-03-22T13:49:32;2.95;;;2.40;;
84329;SDS011;74510;42.676;23.432;2024-03-22T13:51:58;4.30;;;2.65;;
84329;SDS011;74510;42.676;23.432;2024-03-22T13:54:27;4.40;;;3.53;;
84329;SDS011;74510;42.676;23.432;2024-03-22T13:56:52;3.35;;;2.33;;
84329;SDS011;74510;42.676;23.432;2024-03-22T13:59:18;4.00;;;2.05;;
84329;SDS011;74510;42.676;23.432;2024-03-22T14:01:44;3.30;;;2.13;;
84329;SDS011;74510;42.676;23.432;2024-03-22T14:04:12;4.25;;;2.58;;
84329;SDS011;74510;42.676;23.432;2024-03-22T14:06:38;5.55;;;2.10;;
84329;SDS011;74510;42.676;23.432;2024-03-22T14:09:03;5.70;;;3.75;;
84329;SDS011;74510;42.676;23.432;2024-03-22T14:11:30;4.55;;;2.72;;
84329;SDS011;74510;42.676;23.432;2024-03-22T14:13:56;3.95;;;2.40;;
84329;SDS011;74510;42.676;23.432;2024-03-22T14:16:22;3.50;;;2.42;;
84329;SDS011;74510;42.676;23.432;2024-03-22T14:18:48;4.07;;;2.10;;
84329;SDS011;74510;42.676;23.432;2024-03-22T14:21:14;3.75;;;2.40;;